createdAt,value
2018-05-11T00:00:28.201Z,11.26
2018-05-11T00:01:28.192Z,11.26
2018-05-11T00:02:28.183Z,11.16
2018-05-11T00:03:28.178Z,11.11
2018-05-11T00:04:28.178Z,11.19
2018-05-11T00:05:28.176Z,11.06
2018-05-11T00:06:28.164Z,11.19
2018-05-11T00:07:28.160Z,11.13
2018-05-11T00:08:28.155Z,11.06
2018-05-11T00:09:28.149Z,11.01
2018-05-11T00:10:28.151Z,10.95
2018-05-11T00:11:28.148Z,11.02
2018-05-11T00:12:28.140Z,10.95
2018-05-11T00:13:28.135Z,10.94
2018-05-11T00:14:28.128Z,10.88
2018-05-11T00:15:28.122Z,10.83
2018-05-11T00:16:28.117Z,10.83
2018-05-11T00:17:28.111Z,10.88
2018-05-11T00:18:28.112Z,10.87
2018-05-11T00:19:28.107Z,10.87
2018-05-11T00:20:28.097Z,10.76
2018-05-11T00:21:28.097Z,10.65
2018-05-11T00:22:28.092Z,10.60
2018-05-11T00:23:28.176Z,10.66
2018-05-11T00:24:28.082Z,10.62
2018-05-11T00:25:28.076Z,10.52
2018-05-11T00:26:28.068Z,10.55
2018-05-11T00:27:28.062Z,10.62
2018-05-11T00:28:28.058Z,10.54
2018-05-11T00:29:28.052Z,10.44
2018-05-11T00:30:28.053Z,10.54
2018-05-11T00:31:28.046Z,10.47
2018-05-11T00:32:28.042Z,10.47
2018-05-11T00:33:28.038Z,10.38
2018-05-11T00:34:28.028Z,10.35
2018-05-11T00:35:28.026Z,10.34
2018-05-11T00:36:28.023Z,10.36
2018-05-11T00:37:28.017Z,10.28
2018-05-11T00:38:28.008Z,10.24
2018-05-11T00:39:28.002Z,10.17
2018-05-11T00:40:27.997Z,10.25
2018-05-11T00:41:27.991Z,10.24
2018-05-11T00:42:27.995Z,10.22
2018-05-11T00:43:27.986Z,10.26
2018-05-11T00:44:27.981Z,10.20
2018-05-11T00:45:27.976Z,10.26
2018-05-11T00:46:27.966Z,10.22
2018-05-11T00:47:27.961Z,10.32
2018-05-11T00:48:27.956Z,10.25
2018-05-11T00:49:27.952Z,10.29
2018-05-11T00:50:27.951Z,10.34
2018-05-11T00:51:27.947Z,10.29
2018-05-11T00:52:27.938Z,10.28
2018-05-11T00:53:27.930Z,10.25
2018-05-11T00:54:27.930Z,10.24
2018-05-11T00:55:27.925Z,10.28
2018-05-11T00:56:27.919Z,10.31
2018-05-11T00:57:27.913Z,10.25
2018-05-11T00:58:27.905Z,10.39
2018-05-11T00:59:27.902Z,10.39
2018-05-11T01:00:27.894Z,10.36
2018-05-11T01:01:27.888Z,10.35
2018-05-11T01:02:27.887Z,10.31
2018-05-11T01:03:27.883Z,10.32
2018-05-11T01:04:27.879Z,10.29
2018-05-11T01:05:27.872Z,10.39
2018-05-11T01:06:27.862Z,10.31
2018-05-11T01:07:27.857Z,10.43
2018-05-11T01:08:27.859Z,10.39
2018-05-11T01:09:27.850Z,10.31
2018-05-11T01:10:27.840Z,10.31
2018-05-11T01:11:27.836Z,10.28
2018-05-11T01:12:27.831Z,10.24
2018-05-11T01:13:27.824Z,10.24
2018-05-11T01:14:27.824Z,10.25
2018-05-11T01:15:27.824Z,10.31
2018-05-11T01:16:27.815Z,10.24
2018-05-11T01:17:27.808Z,10.24
2018-05-11T01:18:27.800Z,10.31
2018-05-11T01:19:27.794Z,10.31
2018-05-11T01:20:27.789Z,10.31
2018-05-11T01:21:27.782Z,10.29
2018-05-11T01:22:27.781Z,10.31
2018-05-11T01:23:27.782Z,10.24
2018-05-11T01:24:27.767Z,10.25
2018-05-11T01:25:27.760Z,10.25
2018-05-11T01:26:27.760Z,10.22
2018-05-11T01:27:27.755Z,10.28
2018-05-11T01:28:27.751Z,10.17
2018-05-11T01:29:27.745Z,10.18
2018-05-11T01:30:27.734Z,10.16
2018-05-11T01:31:27.729Z,10.18
2018-05-11T01:32:27.724Z,10.13
2018-05-11T01:33:27.717Z,10.17
2018-05-11T01:34:27.718Z,10.07
2018-05-11T01:35:27.712Z,10.14
2018-05-11T01:36:27.706Z,10.13
2018-05-11T01:37:27.702Z,10.07
2018-05-11T01:38:27.691Z,10.10
2018-05-11T01:39:27.685Z,10.07
2018-05-11T01:40:27.685Z,10.17
2018-05-11T01:41:27.679Z,10.10
2018-05-11T01:42:27.669Z,10.10
2018-05-11T01:43:27.664Z,10.06
2018-05-11T01:44:27.660Z,10.13
2018-05-11T01:45:27.654Z,10.07
2018-05-11T01:46:27.651Z,10.07
2018-05-11T01:47:27.649Z,9.96
2018-05-11T01:48:27.642Z,9.93
2018-05-11T01:49:27.636Z,9.83
2018-05-11T01:50:27.625Z,9.93
2018-05-11T01:51:27.620Z,9.95
2018-05-11T01:52:27.614Z,9.96
2018-05-11T01:53:27.607Z,9.98
2018-05-11T01:54:27.607Z,9.95
2018-05-11T01:55:27.601Z,9.88
2018-05-11T01:56:27.592Z,9.88
2018-05-11T01:57:27.585Z,9.95
2018-05-11T01:58:27.635Z,9.85
2018-05-11T01:59:27.579Z,9.89
2018-05-11T02:00:27.577Z,9.86
2018-05-11T02:01:27.569Z,9.75
2018-05-11T02:02:27.560Z,9.75
2018-05-11T02:03:27.552Z,9.67
2018-05-11T02:04:27.550Z,9.67
2018-05-11T02:05:27.541Z,9.65
2018-05-11T02:06:27.541Z,9.81
2018-05-11T02:07:27.535Z,9.77
2018-05-11T02:08:27.529Z,9.71
2018-05-11T02:09:27.522Z,9.75
2018-05-11T02:10:27.512Z,9.67
2018-05-11T02:11:27.507Z,9.68
2018-05-11T02:12:27.506Z,9.63
2018-05-11T02:13:27.499Z,9.58
2018-05-11T02:14:27.489Z,9.67
2018-05-11T02:15:27.485Z,9.65
2018-05-11T02:16:27.479Z,9.59
2018-05-11T02:17:27.472Z,9.60
2018-05-11T02:18:27.504Z,9.52
2018-05-11T02:19:27.470Z,9.55
2018-05-11T02:20:27.459Z,9.45
2018-05-11T02:21:27.454Z,9.41
2018-05-11T02:22:27.443Z,9.44
2018-05-11T02:23:27.438Z,9.45
2018-05-11T02:24:27.435Z,9.55
2018-05-11T02:25:27.425Z,9.50
2018-05-11T02:26:27.425Z,9.50
2018-05-11T02:27:27.419Z,9.58
2018-05-11T02:28:27.409Z,9.44
2018-05-11T02:29:27.402Z,9.55
2018-05-11T02:30:27.406Z,9.50
2018-05-11T02:31:27.400Z,9.41
2018-05-11T02:32:27.391Z,9.42
2018-05-11T02:33:27.382Z,9.37
2018-05-11T02:34:27.373Z,9.40
2018-05-11T02:35:27.368Z,9.41
2018-05-11T02:36:27.363Z,9.40
2018-05-11T02:37:27.355Z,9.40
2018-05-11T02:38:27.358Z,9.31
2018-05-11T02:39:27.349Z,9.24
2018-05-11T02:40:27.344Z,9.27
2018-05-11T02:41:27.338Z,9.27
2018-05-11T02:42:27.327Z,9.16
2018-05-11T02:43:27.321Z,9.17
2018-05-11T02:44:27.320Z,9.16
2018-05-11T02:45:27.314Z,9.15
2018-05-11T02:46:27.303Z,9.19
2018-05-11T02:47:27.302Z,9.26
2018-05-11T02:48:27.291Z,9.23
2018-05-11T02:49:27.285Z,9.30
2018-05-11T02:50:27.283Z,9.24
2018-05-11T02:51:27.277Z,9.23
2018-05-11T02:52:27.271Z,9.31
2018-05-11T02:53:27.265Z,9.35
2018-05-11T02:54:27.254Z,9.35
2018-05-11T02:55:27.248Z,9.40
2018-05-11T02:56:27.243Z,9.42
2018-05-11T02:57:27.239Z,9.44
2018-05-11T02:58:27.238Z,9.52
2018-05-11T02:59:27.229Z,9.52
2018-05-11T03:00:27.219Z,9.42
2018-05-11T03:01:27.213Z,9.45
2018-05-11T03:02:27.212Z,9.48
2018-05-11T03:03:27.206Z,9.41
2018-05-11T03:04:27.200Z,9.31
2018-05-11T03:05:27.192Z,9.27
2018-05-11T03:06:27.183Z,9.22
2018-05-11T03:07:27.175Z,9.19
2018-05-11T03:08:27.171Z,9.22
2018-05-11T03:09:27.164Z,9.17
2018-05-11T03:10:27.253Z,9.15
2018-05-11T03:11:27.156Z,9.19
2018-05-11T03:12:27.150Z,9.15
2018-05-11T03:13:27.215Z,9.20
2018-05-11T03:14:27.133Z,9.15
2018-05-11T03:15:27.128Z,9.04
2018-05-11T03:16:27.127Z,9.00
2018-05-11T03:17:27.120Z,8.98
2018-05-11T03:18:27.308Z,9.03
2018-05-11T03:19:27.103Z,8.94
2018-05-11T03:20:27.097Z,8.86
2018-05-11T03:21:27.090Z,8.86
2018-05-11T03:22:27.090Z,8.83
2018-05-11T03:23:27.083Z,8.86
2018-05-11T03:24:27.076Z,8.88
2018-05-11T03:25:27.069Z,8.85
2018-05-11T03:26:27.059Z,8.88
2018-05-11T03:27:27.053Z,8.86
2018-05-11T03:28:27.048Z,8.86
2018-05-11T03:29:27.040Z,8.85
2018-05-11T03:30:27.041Z,8.86
2018-05-11T03:31:27.036Z,8.80
2018-05-11T03:32:27.023Z,8.82
2018-05-11T03:33:27.016Z,8.85
2018-05-11T03:34:27.014Z,8.83
2018-05-11T03:35:27.008Z,8.70
2018-05-11T03:36:27.003Z,8.75
2018-05-11T03:37:26.998Z,8.75
2018-05-11T03:38:26.984Z,8.68
2018-05-11T03:39:26.980Z,8.70
2018-05-11T03:40:26.973Z,8.70
2018-05-11T03:41:26.965Z,8.68
2018-05-11T03:42:26.965Z,8.79
2018-05-11T03:43:26.957Z,8.71
2018-05-11T03:44:26.952Z,8.75
2018-05-11T03:45:26.945Z,8.75
2018-05-11T03:46:26.935Z,8.82
2018-05-11T03:47:26.927Z,8.70
2018-05-11T03:48:26.928Z,8.82
2018-05-11T03:49:26.919Z,8.76
2018-05-11T03:50:26.910Z,8.78
2018-05-11T03:51:26.903Z,8.82
2018-05-11T03:52:26.896Z,8.79
2018-05-11T03:53:26.888Z,8.83
2018-05-11T03:54:26.886Z,8.85
2018-05-11T03:55:26.880Z,8.82
2018-05-11T03:56:26.875Z,8.73
2018-05-11T03:57:26.868Z,8.71
2018-05-11T03:58:26.856Z,8.83
2018-05-11T03:59:26.853Z,8.70
2018-05-11T04:00:26.844Z,8.70
2018-05-11T04:01:26.837Z,8.82
2018-05-11T04:02:26.836Z,8.83
2018-05-11T04:03:26.831Z,8.85
2018-05-11T04:04:26.823Z,8.89
2018-05-11T04:05:26.813Z,8.96
2018-05-11T04:06:26.811Z,8.89
2018-05-11T04:07:26.806Z,8.98
2018-05-11T04:08:26.797Z,9.03
2018-05-11T04:09:26.790Z,9.03
2018-05-11T04:10:26.779Z,8.91
2018-05-11T04:11:26.774Z,8.93
2018-05-11T04:12:26.769Z,8.86
2018-05-11T04:13:26.763Z,8.89
2018-05-11T04:14:26.758Z,8.89
2018-05-11T04:15:26.752Z,8.86
2018-05-11T04:16:26.748Z,8.88
2018-05-11T04:17:26.740Z,8.85
2018-05-11T04:18:26.730Z,9.01
2018-05-11T04:19:26.723Z,9.04
2018-05-11T04:20:26.722Z,8.97
2018-05-11T04:21:26.714Z,9.15
2018-05-11T04:22:26.704Z,9.20
2018-05-11T04:23:26.698Z,9.06
2018-05-11T04:24:26.692Z,9.13
2018-05-11T04:25:26.684Z,9.17
2018-05-11T04:26:26.686Z,9.26
2018-05-11T04:27:26.683Z,9.16
2018-05-11T04:28:26.672Z,9.32
2018-05-11T04:29:26.664Z,9.31
2018-05-11T04:30:26.655Z,9.30
2018-05-11T04:31:26.648Z,9.27
2018-05-11T04:32:26.642Z,9.31
2018-05-11T04:33:26.635Z,9.44
2018-05-11T04:34:26.635Z,9.44
2018-05-11T04:35:26.628Z,9.44
2018-05-11T04:36:26.623Z,9.37
2018-05-11T04:37:26.610Z,9.52
2018-05-11T04:38:26.609Z,9.49
2018-05-11T04:39:26.603Z,9.59
2018-05-11T04:40:26.598Z,9.65
2018-05-11T04:41:26.594Z,9.67
2018-05-11T04:42:26.585Z,9.75
2018-05-11T04:43:26.575Z,9.80
2018-05-11T04:44:26.569Z,9.93
2018-05-11T04:45:26.562Z,9.98
2018-05-11T04:46:26.563Z,10.11
2018-05-11T04:47:26.557Z,10.22
2018-05-11T04:48:26.551Z,10.38
2018-05-11T04:49:26.545Z,10.52
2018-05-11T04:50:26.541Z,10.65
2018-05-11T04:51:26.531Z,10.98
2018-05-11T04:52:26.529Z,11.09
2018-05-11T04:53:26.526Z,11.28
2018-05-11T04:54:26.515Z,11.59
2018-05-11T04:55:26.510Z,11.78
2018-05-11T04:56:26.508Z,12.04
2018-05-11T04:57:26.501Z,12.34
2018-05-11T04:58:26.516Z,12.55
2018-05-11T04:59:26.499Z,12.88
2018-05-11T05:00:26.495Z,13.13
2018-05-11T05:01:26.490Z,13.39
2018-05-11T05:02:26.482Z,13.71
2018-05-11T05:03:26.477Z,13.91
2018-05-11T05:04:26.474Z,14.13
2018-05-11T05:05:26.470Z,14.30
2018-05-11T05:06:26.471Z,14.36
2018-05-11T05:07:26.468Z,14.54
2018-05-11T05:08:26.461Z,14.74
2018-05-11T05:09:26.458Z,14.97
2018-05-11T05:10:26.460Z,15.04
2018-05-11T05:11:26.458Z,14.93
2018-05-11T05:12:26.504Z,14.78
2018-05-11T05:13:26.456Z,14.60
2018-05-11T05:14:26.445Z,14.59
2018-05-11T05:15:26.446Z,14.57
2018-05-11T05:16:26.441Z,14.57
2018-05-11T05:17:26.437Z,14.85
2018-05-11T05:18:26.441Z,15.03
2018-05-11T05:19:26.441Z,15.35
2018-05-11T05:20:26.436Z,15.53
2018-05-11T05:21:26.434Z,15.66
2018-05-11T05:22:26.428Z,15.74
2018-05-11T05:23:26.426Z,15.93
2018-05-11T05:24:26.429Z,16.36
2018-05-11T05:25:26.426Z,16.78
2018-05-11T05:26:26.420Z,17.18
2018-05-11T05:27:26.420Z,17.53
2018-05-11T05:28:26.417Z,17.83
2018-05-11T05:29:26.474Z,17.87
2018-05-11T05:30:26.420Z,17.80
2018-05-11T05:31:26.420Z,17.84
2018-05-11T05:32:26.418Z,18.13
2018-05-11T05:33:26.418Z,18.46
2018-05-11T05:34:26.412Z,18.71
2018-05-11T05:35:26.413Z,18.78
2018-05-11T05:36:26.412Z,18.84
2018-05-11T05:37:26.411Z,18.87
2018-05-11T05:38:26.416Z,18.89
2018-05-11T05:39:26.420Z,18.91
2018-05-11T05:40:26.413Z,18.83
2018-05-11T05:41:26.411Z,18.68
2018-05-11T05:42:26.417Z,18.44
2018-05-11T05:43:26.418Z,18.14
2018-05-11T05:44:26.419Z,18.01
2018-05-11T05:45:26.417Z,18.17
2018-05-11T05:46:26.423Z,18.68
2018-05-11T05:47:26.415Z,19.21
2018-05-11T05:48:26.416Z,19.76
2018-05-11T05:49:26.420Z,20.13
2018-05-11T05:50:26.422Z,20.46
2018-05-11T05:51:26.423Z,20.51
2018-05-11T05:52:26.424Z,19.76
2018-05-11T05:53:26.427Z,20.08
2018-05-11T05:54:26.425Z,20.33
2018-05-11T05:55:26.425Z,19.53
2018-05-11T05:56:26.436Z,19.65
2018-05-11T05:57:26.431Z,20.16
2018-05-11T05:58:26.494Z,20.37
2018-05-11T05:59:26.431Z,20.66
2018-05-11T06:00:26.439Z,21.37
2018-05-11T06:01:26.434Z,21.08
2018-05-11T06:02:26.513Z,21.12
2018-05-11T06:03:26.444Z,20.71
2018-05-11T06:04:26.447Z,20.12
2018-05-11T06:05:26.449Z,19.78
2018-05-11T06:06:26.448Z,19.43
2018-05-11T06:07:26.451Z,19.32
2018-05-11T06:08:26.455Z,19.23
2018-05-11T06:09:26.456Z,19.12
2018-05-11T06:10:26.463Z,19.10
2018-05-11T06:11:26.468Z,19.16
2018-05-11T06:12:26.465Z,19.05
2018-05-11T06:13:26.466Z,18.94
2018-05-11T06:14:26.475Z,18.87
2018-05-11T06:15:26.477Z,18.71
2018-05-11T06:16:26.479Z,18.65
2018-05-11T06:17:26.480Z,18.26
2018-05-11T06:18:26.479Z,18.13
2018-05-11T06:19:26.481Z,17.71
2018-05-11T06:20:26.483Z,17.87
2018-05-11T06:21:26.485Z,17.84
2018-05-11T06:22:26.491Z,18.21
2018-05-11T06:23:26.499Z,18.44
2018-05-11T06:24:26.504Z,18.71
2018-05-11T06:25:26.498Z,19.01
2018-05-11T06:26:26.495Z,18.96
2018-05-11T06:27:26.497Z,18.99
2018-05-11T06:28:26.504Z,19.16
2018-05-11T06:29:26.507Z,19.79
2018-05-11T06:30:26.503Z,20.33
2018-05-11T06:31:26.506Z,20.34
2018-05-11T06:32:26.511Z,20.91
2018-05-11T06:33:26.508Z,21.73
2018-05-11T06:34:26.551Z,21.96
2018-05-11T06:35:26.518Z,22.27
2018-05-11T06:36:26.526Z,22.42
2018-05-11T06:37:26.523Z,22.45
2018-05-11T06:38:26.525Z,21.68
2018-05-11T06:39:26.526Z,21.21
2018-05-11T06:40:26.554Z,20.88
2018-05-11T06:41:26.533Z,20.83
2018-05-11T06:42:26.542Z,21.21
2018-05-11T06:43:26.545Z,20.94
2018-05-11T06:44:26.550Z,20.93
2018-05-11T06:45:26.548Z,20.42
2018-05-11T06:46:26.558Z,20.69
2018-05-11T06:47:26.562Z,20.82
2018-05-11T06:48:26.568Z,20.91
2018-05-11T06:49:26.572Z,21.33
2018-05-11T06:50:26.572Z,22.11
2018-05-11T06:51:26.576Z,22.79
2018-05-11T06:52:26.581Z,22.23
2018-05-11T06:53:26.585Z,22.36
2018-05-11T06:54:26.594Z,22.64
2018-05-11T06:55:26.602Z,23.16
2018-05-11T06:56:26.605Z,23.71
2018-05-11T06:57:26.610Z,22.66
2018-05-11T06:58:26.612Z,21.70
2018-05-11T06:59:26.618Z,20.81
2018-05-11T07:00:26.628Z,20.08
2018-05-11T07:01:26.689Z,20.31
2018-05-11T07:02:26.634Z,20.20
2018-05-11T07:03:26.641Z,21.11
2018-05-11T07:04:26.647Z,21.22
2018-05-11T07:05:26.658Z,22.23
2018-05-11T07:06:26.664Z,23.50
2018-05-11T07:07:26.670Z,23.99
2018-05-11T07:08:26.682Z,24.30
2018-05-11T07:09:26.681Z,24.21
2018-05-11T07:10:26.682Z,24.09
2018-05-11T07:11:26.689Z,23.74
2018-05-11T07:12:26.695Z,24.15
2018-05-11T07:13:26.701Z,25.19
2018-05-11T07:14:26.713Z,26.11
2018-05-11T07:15:26.719Z,26.84
2018-05-11T07:16:26.723Z,27.42
2018-05-11T07:17:26.728Z,27.83
2018-05-11T07:18:26.740Z,25.76
2018-05-11T07:19:26.766Z,24.21
2018-05-11T07:20:26.756Z,24.19
2018-05-11T07:21:26.766Z,24.82
2018-05-11T07:22:26.765Z,25.17
2018-05-11T07:23:26.777Z,24.59
2018-05-11T07:24:26.782Z,24.26
2018-05-11T07:25:26.789Z,24.59
2018-05-11T07:26:26.802Z,24.60
2018-05-11T07:27:26.811Z,25.48
2018-05-11T07:28:26.819Z,25.71
2018-05-11T07:29:26.827Z,25.63
2018-05-11T07:30:26.831Z,24.97
2018-05-11T07:31:26.840Z,24.66
2018-05-11T07:32:26.853Z,23.72
2018-05-11T07:33:26.863Z,22.36
2018-05-11T07:34:26.866Z,21.81
2018-05-11T07:35:26.875Z,22.56
2018-05-11T07:36:26.886Z,23.75
2018-05-11T07:37:26.896Z,23.57
2018-05-11T07:38:26.907Z,23.44
2018-05-11T07:39:26.913Z,21.94
2018-05-11T07:40:26.920Z,21.56
2018-05-11T07:41:26.925Z,21.26
2018-05-11T07:42:26.939Z,21.03
2018-05-11T07:43:27.109Z,20.64
2018-05-11T07:44:26.957Z,20.50
2018-05-11T07:45:26.960Z,20.51
2018-05-11T07:46:26.964Z,20.50
2018-05-11T07:47:26.975Z,20.61
2018-05-11T07:48:26.981Z,20.46
2018-05-11T07:49:26.989Z,20.71
2018-05-11T07:50:26.990Z,20.48
2018-05-11T07:51:26.998Z,20.68
2018-05-11T07:52:27.002Z,20.73
2018-05-11T07:53:27.010Z,21.15
2018-05-11T07:54:27.019Z,21.40
2018-05-11T07:55:27.025Z,21.58
2018-05-11T07:56:27.029Z,21.42
2018-05-11T07:57:27.035Z,21.16
2018-05-11T07:58:27.036Z,21.09
2018-05-11T07:59:27.042Z,20.96
2018-05-11T08:00:27.046Z,21.45
2018-05-11T08:01:27.050Z,22.09
2018-05-11T08:02:27.060Z,21.40
2018-05-11T08:03:27.067Z,21.03
2018-05-11T08:04:27.071Z,21.01
2018-05-11T08:05:27.072Z,20.63
2018-05-11T08:06:27.081Z,20.42
2018-05-11T08:07:27.086Z,20.38
2018-05-11T08:08:27.095Z,20.64
2018-05-11T08:09:27.098Z,21.27
2018-05-11T08:10:27.098Z,22.48
2018-05-11T08:11:27.103Z,23.90
2018-05-11T08:12:27.110Z,24.68
2018-05-11T08:13:27.113Z,24.30
2018-05-11T08:14:27.247Z,23.23
2018-05-11T08:15:27.130Z,22.99
2018-05-11T08:16:27.138Z,22.46
2018-05-11T08:17:27.142Z,24.11
2018-05-11T08:18:27.143Z,25.67
2018-05-11T08:19:27.150Z,26.17
2018-05-11T08:20:27.161Z,26.76
2018-05-11T08:21:27.281Z,25.48
2018-05-11T08:22:27.172Z,24.42
2018-05-11T08:23:27.181Z,23.45
2018-05-11T08:24:27.188Z,23.00
2018-05-11T08:25:27.195Z,22.26
2018-05-11T08:26:27.207Z,22.29
2018-05-11T08:27:27.215Z,23.49
2018-05-11T08:28:27.223Z,23.56
2018-05-11T08:29:27.232Z,24.51
2018-05-11T08:30:27.232Z,24.27
2018-05-11T08:31:27.240Z,24.00
2018-05-11T08:32:27.252Z,24.06
2018-05-11T08:33:27.255Z,24.08
2018-05-11T08:34:27.270Z,24.23
2018-05-11T08:35:27.275Z,24.37
2018-05-11T08:36:27.280Z,24.24
2018-05-11T08:37:27.286Z,23.87
2018-05-11T08:38:27.298Z,23.42
2018-05-11T08:39:27.306Z,23.18
2018-05-11T08:40:27.315Z,22.24
2018-05-11T08:41:27.321Z,22.11
2018-05-11T08:42:27.325Z,23.44
2018-05-11T08:43:27.333Z,24.64
2018-05-11T08:44:27.338Z,25.74
2018-05-11T08:45:27.343Z,27.09
2018-05-11T08:46:27.398Z,27.81
2018-05-11T08:47:27.364Z,27.33
2018-05-11T08:48:27.374Z,26.79
2018-05-11T08:49:27.381Z,27.09
2018-05-11T08:50:27.383Z,26.96
2018-05-11T08:51:27.393Z,27.27
2018-05-11T08:52:27.421Z,27.05
2018-05-11T08:53:27.416Z,26.87
2018-05-11T08:54:27.420Z,24.93
2018-05-11T08:55:27.431Z,24.59
2018-05-11T08:56:27.441Z,24.75
2018-05-11T08:57:27.450Z,24.53
2018-05-11T08:58:27.466Z,24.52
2018-05-11T08:59:27.476Z,25.69
2018-05-11T09:00:27.487Z,27.01
2018-05-11T09:01:27.495Z,28.43
2018-05-11T09:02:27.503Z,28.89
2018-05-11T09:03:27.514Z,29.36
2018-05-11T09:04:27.525Z,28.83
2018-05-11T09:05:27.536Z,29.51
2018-05-11T09:06:27.554Z,29.60
2018-05-11T09:07:27.566Z,29.42
2018-05-11T09:08:27.573Z,30.06
2018-05-11T09:09:27.584Z,29.30
2018-05-11T09:10:27.604Z,28.92
2018-05-11T09:11:27.616Z,28.61
2018-05-11T09:12:27.630Z,28.91
2018-05-11T09:13:27.642Z,28.11
2018-05-11T09:14:27.652Z,26.78
2018-05-11T09:15:27.665Z,26.00
2018-05-11T09:16:27.679Z,25.39
2018-05-11T09:17:27.692Z,25.36
2018-05-11T09:18:27.711Z,25.14
2018-05-11T09:19:27.724Z,25.38
2018-05-11T09:20:27.739Z,25.85
2018-05-11T09:21:27.754Z,27.49
2018-05-11T09:22:27.760Z,28.61
2018-05-11T09:23:27.772Z,27.88
2018-05-11T09:24:27.791Z,27.39
2018-05-11T09:25:27.802Z,27.01
2018-05-11T09:26:27.810Z,26.42
2018-05-11T09:27:27.823Z,25.81
2018-05-11T09:28:27.838Z,25.85
2018-05-11T09:29:27.847Z,26.86
2018-05-11T09:30:27.863Z,26.50
2018-05-11T09:31:27.876Z,26.94
2018-05-11T09:32:27.887Z,27.09
2018-05-11T09:33:27.899Z,27.48
2018-05-11T09:34:27.908Z,27.30
2018-05-11T09:35:27.920Z,27.80
2018-05-11T09:36:27.933Z,28.20
2018-05-11T09:37:27.952Z,28.33
2018-05-11T09:38:27.962Z,29.26
2018-05-11T09:39:28.025Z,29.60
2018-05-11T09:40:27.985Z,29.66
2018-05-11T09:41:27.997Z,27.20
2018-05-11T09:42:28.017Z,26.93
2018-05-11T09:43:28.032Z,25.94
2018-05-11T09:44:28.044Z,25.16
2018-05-11T09:45:28.056Z,25.05
2018-05-11T09:46:28.064Z,24.94
2018-05-11T09:47:28.077Z,25.04
2018-05-11T09:48:28.090Z,25.82
2018-05-11T09:49:28.143Z,27.01
2018-05-11T09:50:28.120Z,26.08
2018-05-11T09:51:28.132Z,25.59
2018-05-11T09:52:28.146Z,25.49
2018-05-11T09:53:28.241Z,24.63
2018-05-11T09:54:28.161Z,23.47
2018-05-11T09:55:28.173Z,22.94
2018-05-11T09:56:28.188Z,24.21
2018-05-11T09:57:28.199Z,24.86
2018-05-11T09:58:28.206Z,25.49
2018-05-11T09:59:28.215Z,26.64
2018-05-11T10:00:28.230Z,27.45
2018-05-11T10:01:28.244Z,28.11
2018-05-11T10:02:28.252Z,28.21
2018-05-11T10:03:28.265Z,28.48
2018-05-11T10:04:28.356Z,28.06
2018-05-11T10:05:28.287Z,28.82
2018-05-11T10:06:28.294Z,29.47
2018-05-11T10:07:28.306Z,28.46
2018-05-11T10:08:28.322Z,28.76
2018-05-11T10:09:28.332Z,29.36
2018-05-11T10:10:28.349Z,28.70
2018-05-11T10:11:28.361Z,29.33
2018-05-11T10:12:28.369Z,29.78
2018-05-11T10:13:28.383Z,30.23
2018-05-11T10:14:28.401Z,30.03
2018-05-11T10:15:28.415Z,29.54
2018-05-11T10:16:28.432Z,28.70
2018-05-11T10:17:28.444Z,29.25
2018-05-11T10:18:28.453Z,29.88
2018-05-11T10:19:28.467Z,30.64
2018-05-11T10:20:28.483Z,29.73
2018-05-11T10:21:28.497Z,29.32
2018-05-11T10:22:28.516Z,28.65
2018-05-11T10:23:28.535Z,28.85
2018-05-11T10:24:28.547Z,29.86
2018-05-11T10:25:28.560Z,30.57
2018-05-11T10:26:28.571Z,31.64
2018-05-11T10:27:28.591Z,32.53
2018-05-11T10:28:28.607Z,32.95
2018-05-11T10:29:28.626Z,33.14
2018-05-11T10:30:28.636Z,31.82
2018-05-11T10:31:28.648Z,30.25
2018-05-11T10:32:28.665Z,28.58
2018-05-11T10:33:28.684Z,27.74
2018-05-11T10:34:28.780Z,26.64
2018-05-11T10:35:28.716Z,25.66
2018-05-11T10:36:28.730Z,25.46
2018-05-11T10:37:28.742Z,25.01
2018-05-11T10:38:28.752Z,24.86
2018-05-11T10:39:28.765Z,25.56
2018-05-11T10:40:28.777Z,25.71
2018-05-11T10:41:28.790Z,26.56
2018-05-11T10:42:28.824Z,27.08
2018-05-11T10:43:28.821Z,28.15
2018-05-11T10:44:28.827Z,27.88
2018-05-11T10:45:28.836Z,27.38
2018-05-11T10:46:28.854Z,27.55
2018-05-11T10:47:28.865Z,27.86
2018-05-11T10:48:28.930Z,28.36
2018-05-11T10:49:28.888Z,29.36
2018-05-11T10:50:28.896Z,29.41
2018-05-11T10:51:28.909Z,29.41
2018-05-11T10:52:28.921Z,28.15
2018-05-11T10:53:28.933Z,29.07
2018-05-11T10:54:28.950Z,27.72
2018-05-11T10:55:28.963Z,27.30
2018-05-11T10:56:28.977Z,27.25
2018-05-11T10:57:28.988Z,27.48
2018-05-11T10:58:29.000Z,28.01
2018-05-11T10:59:29.011Z,26.88
2018-05-11T11:00:29.029Z,26.76
2018-05-11T11:01:29.043Z,26.65
2018-05-11T11:02:29.123Z,25.83
2018-05-11T11:03:29.063Z,26.34
2018-05-11T11:04:29.076Z,27.01
2018-05-11T11:05:29.088Z,27.88
2018-05-11T11:06:29.105Z,28.80
2018-05-11T11:07:29.120Z,28.54
2018-05-11T11:08:29.130Z,28.33
2018-05-11T11:09:29.141Z,28.72
2018-05-11T11:10:29.151Z,28.46
2018-05-11T11:11:29.163Z,28.13
2018-05-11T11:12:29.175Z,26.88
2018-05-11T11:13:29.194Z,27.38
2018-05-11T11:14:29.203Z,27.13
2018-05-11T11:15:29.217Z,26.41
2018-05-11T11:16:29.225Z,25.83
2018-05-11T11:17:29.236Z,26.04
2018-05-11T11:18:29.252Z,26.50
2018-05-11T11:19:29.263Z,26.47
2018-05-11T11:20:29.274Z,26.79
2018-05-11T11:21:29.285Z,26.17
2018-05-11T11:22:29.291Z,26.09
2018-05-11T11:23:29.311Z,25.86
2018-05-11T11:24:29.312Z,25.81
2018-05-11T11:25:29.324Z,25.89
2018-05-11T11:26:29.336Z,26.12
2018-05-11T11:27:29.346Z,26.31
2018-05-11T11:28:29.358Z,26.04
2018-05-11T11:29:29.367Z,26.01
2018-05-11T11:30:29.369Z,26.23
2018-05-11T11:31:29.381Z,26.12
2018-05-11T11:32:29.393Z,25.57
2018-05-11T11:33:29.400Z,24.87
2018-05-11T11:34:29.469Z,24.18
2018-05-11T11:35:29.422Z,23.44
2018-05-11T11:36:29.420Z,23.21
2018-05-11T11:37:29.427Z,23.25
2018-05-11T11:38:29.440Z,23.15
2018-05-11T11:39:29.446Z,23.35
2018-05-11T11:40:29.473Z,23.41
2018-05-11T11:41:29.460Z,23.42
2018-05-11T11:42:29.465Z,23.59
2018-05-11T11:43:29.470Z,23.72
2018-05-11T11:44:29.487Z,23.86
2018-05-11T11:45:29.483Z,24.23
2018-05-11T11:46:29.494Z,24.41
2018-05-11T11:47:29.512Z,23.45
2018-05-11T11:48:29.502Z,23.39
2018-05-11T11:49:29.507Z,23.52
2018-05-11T11:50:29.519Z,23.64
2018-05-11T11:51:29.524Z,23.52
2018-05-11T11:52:29.531Z,23.74
2018-05-11T11:53:29.535Z,23.26
2018-05-11T11:54:29.538Z,23.19
2018-05-11T11:55:29.543Z,23.15
2018-05-11T11:56:29.646Z,22.99
2018-05-11T11:57:29.552Z,22.66
2018-05-11T11:58:29.563Z,22.61
2018-05-11T11:59:29.568Z,22.78
2018-05-11T12:00:29.574Z,22.82
2018-05-11T12:01:29.580Z,22.96
2018-05-11T12:02:29.579Z,23.42
2018-05-11T12:03:29.584Z,23.52
2018-05-11T12:04:29.594Z,23.37
2018-05-11T12:05:29.599Z,23.50
2018-05-11T12:06:29.597Z,23.47
2018-05-11T12:07:29.602Z,23.54
2018-05-11T12:08:29.607Z,23.41
2018-05-11T12:09:29.611Z,23.64
2018-05-11T12:10:29.620Z,23.57
2018-05-11T12:11:29.626Z,23.84
2018-05-11T12:12:29.630Z,23.68
2018-05-11T12:13:29.634Z,23.71
2018-05-11T12:14:29.634Z,23.63
2018-05-11T12:15:29.690Z,23.79
2018-05-11T12:16:29.645Z,23.47
2018-05-11T12:17:29.649Z,23.14
2018-05-11T12:18:29.707Z,22.64
2018-05-11T12:19:29.663Z,22.38
2018-05-11T12:20:29.663Z,22.29
2018-05-11T12:21:29.668Z,21.93
2018-05-11T12:22:29.677Z,21.64
2018-05-11T12:23:29.681Z,21.68
2018-05-11T12:24:29.684Z,21.71
2018-05-11T12:25:29.688Z,21.89
2018-05-11T12:26:29.688Z,22.12
2018-05-11T12:27:29.692Z,22.26
2018-05-11T12:28:29.696Z,22.52
2018-05-11T12:29:29.699Z,22.66
2018-05-11T12:30:29.708Z,22.96
2018-05-11T12:31:29.713Z,23.03
2018-05-11T12:32:29.717Z,22.66
2018-05-11T12:33:29.720Z,22.49
2018-05-11T12:34:29.718Z,22.67
2018-05-11T12:35:29.723Z,23.00
2018-05-11T12:36:29.732Z,23.23
2018-05-11T12:37:29.734Z,22.94
2018-05-11T12:38:29.733Z,22.85
2018-05-11T12:39:29.738Z,22.88
2018-05-11T12:40:29.743Z,22.69
2018-05-11T12:41:29.744Z,22.63
2018-05-11T12:42:29.752Z,22.63
2018-05-11T12:43:29.756Z,22.60
2018-05-11T12:44:29.759Z,22.64
2018-05-11T12:45:29.763Z,22.70
2018-05-11T12:46:29.766Z,22.70
2018-05-11T12:47:29.766Z,22.66
2018-05-11T12:48:29.769Z,22.56
2018-05-11T12:49:29.772Z,22.60
2018-05-11T12:50:29.780Z,22.84
2018-05-11T12:51:29.784Z,22.85
2018-05-11T12:52:29.783Z,22.84
2018-05-11T12:53:29.785Z,22.66
2018-05-11T12:54:29.794Z,22.21
2018-05-11T12:55:29.798Z,22.14
2018-05-11T12:56:29.800Z,21.86
2018-05-11T12:57:29.803Z,21.85
2018-05-11T12:58:29.803Z,21.96